sensor_id;sensor_type;location;lat;lon;timestamp;temperature;humidity
8605;DHT22;4340;52.516;13.468;2022-07-06T00:01:12;18.80;1.00
8605;DHT22;4340;52.516;13.468;2022-07-06T00:03:38;18.80;1.00
8605;DHT22;4340;52.516;13.468;2022-07-06T00:06:05;18.90;1.00
8605;DHT22;4340;52.516;13.468;2022-07-06T00:08:32;19.00;1.00
8605;DHT22;4340;52.516;13.468;2022-07-06T00:10:58;18.90;1.00
8605;DHT22;4340;52.516;13.468;2022-07-06T00:13:25;18.90;1.00
8605;DHT22;4340;52.516;13.468;2022-07-06T00:15:53;18.90;1.00
8605;DHT22;4340;52.516;13.468;2022-07-06T00:18:20;18.80;1.00
8605;DHT22;4340;52.516;13.468;2022-07-06T00:20:46;18.80;1.00
8605;DHT22;4340;52.516;13.468;2022-07-06T00:23:13;18.80;1.00
8605;DHT22;4340;52.516;13.468;2022-07-06T00:25:39;18.80;1.00
8605;DHT22;4340;52.516;13.468;2022-07-06T00:28:06;18.70;1.00
8605;DHT22;4340;52.516;13.468;2022-07-06T00:30:32;18.70;1.00
8605;DHT22;4340;52.516;13.468;2022-07-06T00:33:00;18.70;1.00
8605;DHT22;4340;52.516;13.468;2022-07-06T00:35:27;18.80;1.00
8605;DHT22;4340;52.516;13.468;2022-07-06T00:37:54;18.80;1.00
8605;DHT22;4340;52.516;13.468;2022-07-06T00:40:21;18.60;1.00
8605;DHT22;4340;52.516;13.468;2022-07-06T00:42:49;18.50;1.00
8605;DHT22;4340;52.516;13.468;2022-07-06T00:45:17;18.50;1.00
8605;DHT22;4340;52.516;13.468;2022-07-06T00:47:44;18.40;1.00
8605;DHT22;4340;52.516;13.468;2022-07-06T00:50:15;18.50;1.00
8605;DHT22;4340;52.516;13.468;2022-07-06T00:52:45;18.50;1.00
8605;DHT22;4340;52.516;13.468;2022-07-06T00:55:12;18.40;1.00
8605;DHT22;4340;52.516;13.468;2022-07-06T00:57:40;18.40;1.00
8605;DHT22;4340;52.516;13.468;2022-07-06T01:00:09;18.30;1.00
8605;DHT22;4340;52.516;13.468;2022-07-06T01:02:37;18.30;1.00
8605;DHT22;4340;52.516;13.468;2022-07-06T01:05:04;18.30;1.00
8605;DHT22;4340;52.516;13.468;2022-07-06T01:07:33;18.40;1.00
8605;DHT22;4340;52.516;13.468;2022-07-06T01:10:02;18.50;1.00
8605;DHT22;4340;52.516;13.468;2022-07-06T01:12:29;18.60;1.00
8605;DHT22;4340;52.516;13.468;2022-07-06T01:14:56;18.60;1.00
8605;DHT22;4340;52.516;13.468;2022-07-06T01:17:24;18.60;1.00
8605;DHT22;4340;52.516;13.468;2022-07-06T01:19:50;18.60;1.00
8605;DHT22;4340;52.516;13.468;2022-07-06T01:22:19;18.60;1.00
8605;DHT22;4340;52.516;13.468;2022-07-06T01:24:45;18.60;1.00
8605;DHT22;4340;52.516;13.468;2022-07-06T01:27:12;18.60;1.00
8605;DHT22;4340;52.516;13.468;2022-07-06T01:29:39;18.60;1.00
8605;DHT22;4340;52.516;13.468;2022-07-06T01:32:06;18.60;1.00
8605;DHT22;4340;52.516;13.468;2022-07-06T01:34:32;18.60;1.00
8605;DHT22;4340;52.516;13.468;2022-07-06T01:37:00;18.50;1.00
8605;DHT22;4340;52.516;13.468;2022-07-06T01:39:28;18.50;1.00
8605;DHT22;4340;52.516;13.468;2022-07-06T01:41:55;18.50;1.00
8605;DHT22;4340;52.516;13.468;2022-07-06T01:44:21;18.50;1.00
8605;DHT22;4340;52.516;13.468;2022-07-06T01:46:48;18.50;1.00
8605;DHT22;4340;52.516;13.468;2022-07-06T01:49:14;18.50;1.00
8605;DHT22;4340;52.516;13.468;2022-07-06T01:51:41;18.50;1.00
8605;DHT22;4340;52.516;13.468;2022-07-06T01:54:07;18.50;1.00
8605;DHT22;4340;52.516;13.468;2022-07-06T01:56:35;18.50;1.00
8605;DHT22;4340;52.516;13.468;2022-07-06T01:59:02;18.50;1.00
8605;DHT22;4340;52.516;13.468;2022-07-06T02:01:29;18.60;1.00
8605;DHT22;4340;52.516;13.468;2022-07-06T02:03:55;18.60;1.00
8605;DHT22;4340;52.516;13.468;2022-07-06T02:06:22;18.60;1.00
8605;DHT22;4340;52.516;13.468;2022-07-06T02:08:48;18.60;1.00
8605;DHT22;4340;52.516;13.468;2022-07-06T02:11:17;18.60;1.00
8605;DHT22;4340;52.516;13.468;2022-07-06T02:13:44;18.60;1.00
8605;DHT22;4340;52.516;13.468;2022-07-06T02:16:11;18.60;1.00
8605;DHT22;4340;52.516;13.468;2022-07-06T02:18:39;18.70;1.00
8605;DHT22;4340;52.516;13.468;2022-07-06T02:21:06;18.70;1.00
8605;DHT22;4340;52.516;13.468;2022-07-06T02:23:32;18.70;1.00
8605;DHT22;4340;52.516;13.468;2022-07-06T02:25:59;18.70;1.00
8605;DHT22;4340;52.516;13.468;2022-07-06T02:28:25;18.70;1.00
8605;DHT22;4340;52.516;13.468;2022-07-06T02:30:53;18.70;1.00
8605;DHT22;4340;52.516;13.468;2022-07-06T02:33:20;18.60;1.00
8605;DHT22;4340;52.516;13.468;2022-07-06T02:35:46;18.60;1.00
8605;DHT22;4340;52.516;13.468;2022-07-06T02:38:13;18.50;27.80
8605;DHT22;4340;52.516;13.468;2022-07-06T02:40:40;18.50;96.20
8605;DHT22;4340;52.516;13.468;2022-07-06T02:43:06;18.50;99.90
8605;DHT22;4340;52.516;13.468;2022-07-06T02:45:33;18.40;99.90
8605;DHT22;4340;52.516;13.468;2022-07-06T02:48:01;18.30;99.90
8605;DHT22;4340;52.516;13.468;2022-07-06T02:50:28;18.30;1.00
8605;DHT22;4340;52.516;13.468;2022-07-06T02:52:55;18.20;1.00
8605;DHT22;4340;52.516;13.468;2022-07-06T02:55:21;18.10;1.00
8605;DHT22;4340;52.516;13.468;2022-07-06T02:57:48;18.10;1.00
8605;DHT22;4340;52.516;13.468;2022-07-06T03:00:15;18.10;1.00
8605;DHT22;4340;52.516;13.468;2022-07-06T03:02:42;18.10;1.00
8605;DHT22;4340;52.516;13.468;2022-07-06T03:05:10;18.10;1.00
8605;DHT22;4340;52.516;13.468;2022-07-06T03:07:36;18.00;1.00
8605;DHT22;4340;52.516;13.468;2022-07-06T03:10:04;18.00;92.70
8605;DHT22;4340;52.516;13.468;2022-07-06T03:12:31;18.10;1.00
8605;DHT22;4340;52.516;13.468;2022-07-06T03:14:57;18.00;99.90
8605;DHT22;4340;52.516;13.468;2022-07-06T03:17:24;18.00;1.00
8605;DHT22;4340;52.516;13.468;2022-07-06T03:19:50;18.00;99.90
8605;DHT22;4340;52.516;13.468;2022-07-06T03:22:19;17.90;76.50
8605;DHT22;4340;52.516;13.468;2022-07-06T03:24:45;18.00;99.90
8605;DHT22;4340;52.516;13.468;2022-07-06T03:27:12;17.90;99.90
8605;DHT22;4340;52.516;13.468;2022-07-06T03:29:38;17.90;99.90
8605;DHT22;4340;52.516;13.468;2022-07-06T03:32:05;17.90;1.00
8605;DHT22;4340;52.516;13.468;2022-07-06T03:34:32;17.80;99.90
8605;DHT22;4340;52.516;13.468;2022-07-06T03:36:59;17.90;99.90
8605;DHT22;4340;52.516;13.468;2022-07-06T03:39:27;18.00;99.90
8605;DHT22;4340;52.516;13.468;2022-07-06T03:41:54;18.00;99.90
8605;DHT22;4340;52.516;13.468;2022-07-06T03:44:20;18.00;99.90
8605;DHT22;4340;52.516;13.468;2022-07-06T03:46:47;18.00;1.00
8605;DHT22;4340;52.516;13.468;2022-07-06T03:49:15;17.90;1.00
8605;DHT22;4340;52.516;13.468;2022-07-06T03:51:41;17.90;1.00
8605;DHT22;4340;52.516;13.468;2022-07-06T03:54:08;17.90;1.00
8605;DHT22;4340;52.516;13.468;2022-07-06T03:56:36;18.00;1.00
8605;DHT22;4340;52.516;13.468;2022-07-06T03:59:04;17.90;1.00
8605;DHT22;4340;52.516;13.468;2022-07-06T04:01:31;17.90;1.00
8605;DHT22;4340;52.516;13.468;2022-07-06T04:03:57;17.90;1.00
8605;DHT22;4340;52.516;13.468;2022-07-06T04:06:24;17.90;1.00
8605;DHT22;4340;52.516;13.468;2022-07-06T04:08:51;18.00;1.00
8605;DHT22;4340;52.516;13.468;2022-07-06T04:11:18;18.00;1.00
8605;DHT22;4340;52.516;13.468;2022-07-06T04:13:46;18.00;1.00
8605;DHT22;4340;52.516;13.468;2022-07-06T04:16:13;18.10;1.00
8605;DHT22;4340;52.516;13.468;2022-07-06T04:18:40;18.10;1.00
8605;DHT22;4340;52.516;13.468;2022-07-06T04:21:07;18.20;1.00
8605;DHT22;4340;52.516;13.468;2022-07-06T04:23:33;18.30;1.00
8605;DHT22;4340;52.516;13.468;2022-07-06T04:26:00;18.30;1.00
8605;DHT22;4340;52.516;13.468;2022-07-06T04:28:26;18.40;1.00
8605;DHT22;4340;52.516;13.468;2022-07-06T04:30:54;18.50;1.00
8605;DHT22;4340;52.516;13.468;2022-07-06T04:33:21;18.30;1.00
8605;DHT22;4340;52.516;13.468;2022-07-06T04:35:47;18.20;1.00
8605;DHT22;4340;52.516;13.468;2022-07-06T04:38:14;18.10;1.00
8605;DHT22;4340;52.516;13.468;2022-07-06T04:40:41;18.00;1.00
8605;DHT22;4340;52.516;13.468;2022-07-06T04:43:08;18.00;1.00
8605;DHT22;4340;52.516;13.468;2022-07-06T04:45:34;17.90;1.00
8605;DHT22;4340;52.516;13.468;2022-07-06T04:48:03;17.90;1.00
8605;DHT22;4340;52.516;13.468;2022-07-06T04:50:30;18.10;1.00
8605;DHT22;4340;52.516;13.468;2022-07-06T04:52:58;18.20;1.00
8605;DHT22;4340;52.516;13.468;2022-07-06T04:55:25;18.20;1.00
8605;DHT22;4340;52.516;13.468;2022-07-06T04:57:51;18.30;1.00
8605;DHT22;4340;52.516;13.468;2022-07-06T05:00:18;18.40;1.00
8605;DHT22;4340;52.516;13.468;2022-07-06T05:02:44;18.50;1.00
8605;DHT22;4340;52.516;13.468;2022-07-06T05:05:12;18.50;1.00
8605;DHT22;4340;52.516;13.468;2022-07-06T05:07:39;18.60;1.00
8605;DHT22;4340;52.516;13.468;2022-07-06T05:10:07;18.70;99.90
8605;DHT22;4340;52.516;13.468;2022-07-06T05:12:34;18.70;99.90
8605;DHT22;4340;52.516;13.468;2022-07-06T05:15:01;18.80;99.90
8605;DHT22;4340;52.516;13.468;2022-07-06T05:17:27;18.80;99.90
8605;DHT22;4340;52.516;13.468;2022-07-06T05:19:54;19.10;99.90
8605;DHT22;4340;52.516;13.468;2022-07-06T05:22:22;19.20;99.90
8605;DHT22;4340;52.516;13.468;2022-07-06T05:24:49;19.20;99.90
8605;DHT22;4340;52.516;13.468;2022-07-06T05:27:16;19.40;99.90
8605;DHT22;4340;52.516;13.468;2022-07-06T05:29:42;19.40;99.90
8605;DHT22;4340;52.516;13.468;2022-07-06T05:32:10;19.60;99.90
8605;DHT22;4340;52.516;13.468;2022-07-06T05:34:36;19.80;99.90
8605;DHT22;4340;52.516;13.468;2022-07-06T05:37:03;20.00;99.90
8605;DHT22;4340;52.516;13.468;2022-07-06T05:39:31;19.90;99.90
8605;DHT22;4340;52.516;13.468;2022-07-06T05:41:58;20.00;99.90
8605;DHT22;4340;52.516;13.468;2022-07-06T05:44:24;20.00;99.90
8605;DHT22;4340;52.516;13.468;2022-07-06T05:46:51;20.20;99.90
8605;DHT22;4340;52.516;13.468;2022-07-06T05:49:37;20.20;99.90
8605;DHT22;4340;52.516;13.468;2022-07-06T05:52:22;20.20;83.40
8605;DHT22;4340;52.516;13.468;2022-07-06T05:54:49;20.20;58.10
8605;DHT22;4340;52.516;13.468;2022-07-06T05:57:16;20.00;57.70
8605;DHT22;4340;52.516;13.468;2022-07-06T05:59:43;20.20;45.20
8605;DHT22;4340;52.516;13.468;2022-07-06T06:02:09;20.20;36.70
8605;DHT22;4340;52.516;13.468;2022-07-06T06:04:36;20.30;28.60
8605;DHT22;4340;52.516;13.468;2022-07-06T06:07:03;20.40;22.40
8605;DHT22;4340;52.516;13.468;2022-07-06T06:09:30;20.50;22.10
8605;DHT22;4340;52.516;13.468;2022-07-06T06:11:58;20.40;23.40
8605;DHT22;4340;52.516;13.468;2022-07-06T06:14:24;20.60;22.10
8605;DHT22;4340;52.516;13.468;2022-07-06T06:16:51;20.50;16.40
8605;DHT22;4340;52.516;13.468;2022-07-06T06:19:17;20.60;14.20
8605;DHT22;4340;52.516;13.468;2022-07-06T06:21:44;20.70;15.90
8605;DHT22;4340;52.516;13.468;2022-07-06T06:24:11;20.80;6.50
8605;DHT22;4340;52.516;13.468;2022-07-06T06:26:38;21.10;1.00
8605;DHT22;4340;52.516;13.468;2022-07-06T06:29:05;21.10;1.00
8605;DHT22;4340;52.516;13.468;2022-07-06T06:31:32;21.10;1.00
8605;DHT22;4340;52.516;13.468;2022-07-06T06:33:59;21.00;1.00
8605;DHT22;4340;52.516;13.468;2022-07-06T06:36:25;21.00;1.00
8605;DHT22;4340;52.516;13.468;2022-07-06T06:38:52;20.70;1.00
8605;DHT22;4340;52.516;13.468;2022-07-06T06:41:19;20.70;1.00
8605;DHT22;4340;52.516;13.468;2022-07-06T06:43:46;20.70;1.00
8605;DHT22;4340;52.516;13.468;2022-07-06T06:46:14;20.80;1.00
8605;DHT22;4340;52.516;13.468;2022-07-06T06:48:40;21.00;1.00
8605;DHT22;4340;52.516;13.468;2022-07-06T06:51:07;21.00;1.00
8605;DHT22;4340;52.516;13.468;2022-07-06T06:53:33;20.90;1.00
8605;DHT22;4340;52.516;13.468;2022-07-06T06:56:00;20.40;1.00
8605;DHT22;4340;52.516;13.468;2022-07-06T06:58:26;20.60;1.00
8605;DHT22;4340;52.516;13.468;2022-07-06T07:00:53;20.60;1.00
8605;DHT22;4340;52.516;13.468;2022-07-06T07:03:21;20.60;1.00
8605;DHT22;4340;52.516;13.468;2022-07-06T07:05:48;20.70;1.00
8605;DHT22;4340;52.516;13.468;2022-07-06T07:08:14;20.50;1.00
8605;DHT22;4340;52.516;13.468;2022-07-06T07:10:41;20.70;1.00
8605;DHT22;4340;52.516;13.468;2022-07-06T07:13:07;20.70;1.00
8605;DHT22;4340;52.516;13.468;2022-07-06T07:15:34;20.30;1.00
8605;DHT22;4340;52.516;13.468;2022-07-06T07:18:01;20.00;1.00
8605;DHT22;4340;52.516;13.468;2022-07-06T07:20:29;20.00;1.00
8605;DHT22;4340;52.516;13.468;2022-07-06T07:22:57;20.20;1.00
8605;DHT22;4340;52.516;13.468;2022-07-06T07:25:23;20.40;1.00
8605;DHT22;4340;52.516;13.468;2022-07-06T07:27:50;20.40;1.00
8605;DHT22;4340;52.516;13.468;2022-07-06T07:30:16;20.10;1.00
8605;DHT22;4340;52.516;13.468;2022-07-06T07:32:43;20.20;1.00
8605;DHT22;4340;52.516;13.468;2022-07-06T07:35:10;20.00;1.00
8605;DHT22;4340;52.516;13.468;2022-07-06T07:37:38;19.90;1.00
8605;DHT22;4340;52.516;13.468;2022-07-06T07:40:06;19.90;1.00
8605;DHT22;4340;52.516;13.468;2022-07-06T07:42:32;19.90;1.00
8605;DHT22;4340;52.516;13.468;2022-07-06T07:44:59;19.70;1.00
8605;DHT22;4340;52.516;13.468;2022-07-06T07:47:26;19.70;1.00
8605;DHT22;4340;52.516;13.468;2022-07-06T07:49:52;19.70;1.00
8605;DHT22;4340;52.516;13.468;2022-07-06T07:52:19;19.70;1.00
8605;DHT22;4340;52.516;13.468;2022-07-06T07:54:47;19.70;1.00
8605;DHT22;4340;52.516;13.468;2022-07-06T07:57:13;19.80;1.00
8605;DHT22;4340;52.516;13.468;2022-07-06T07:59:40;19.90;1.00
8605;DHT22;4340;52.516;13.468;2022-07-06T08:02:07;20.10;1.00
8605;DHT22;4340;52.516;13.468;2022-07-06T08:04:34;20.20;1.00
8605;DHT22;4340;52.516;13.468;2022-07-06T08:07:00;20.30;1.00
8605;DHT22;4340;52.516;13.468;2022-07-06T08:09:27;20.20;1.00
8605;DHT22;4340;52.516;13.468;2022-07-06T08:11:55;20.30;1.00
8605;DHT22;4340;52.516;13.468;2022-07-06T08:14:22;20.20;1.00
8605;DHT22;4340;52.516;13.468;2022-07-06T08:16:48;20.10;1.00
8605;DHT22;4340;52.516;13.468;2022-07-06T08:19:15;20.10;1.00
8605;DHT22;4340;52.516;13.468;2022-07-06T08:21:42;20.10;1.00
8605;DHT22;4340;52.516;13.468;2022-07-06T08:24:09;20.20;1.00
8605;DHT22;4340;52.516;13.468;2022-07-06T08:26:36;20.30;1.00
8605;DHT22;4340;52.516;13.468;2022-07-06T08:29:04;20.40;1.00
8605;DHT22;4340;52.516;13.468;2022-07-06T08:31:31;20.30;1.00
8605;DHT22;4340;52.516;13.468;2022-07-06T08:34:00;20.20;1.00
8605;DHT22;4340;52.516;13.468;2022-07-06T08:36:28;20.10;1.00
8605;DHT22;4340;52.516;13.468;2022-07-06T08:38:54;20.00;1.00
8605;DHT22;4340;52.516;13.468;2022-07-06T08:41:22;20.10;1.00
8605;DHT22;4340;52.516;13.468;2022-07-06T08:43:50;20.10;1.00
8605;DHT22;4340;52.516;13.468;2022-07-06T08:46:18;20.20;1.00
8605;DHT22;4340;52.516;13.468;2022-07-06T08:48:45;20.40;1.00
8605;DHT22;4340;52.516;13.468;2022-07-06T08:51:13;20.40;1.00
8605;DHT22;4340;52.516;13.468;2022-07-06T08:53:40;20.20;1.00
8605;DHT22;4340;52.516;13.468;2022-07-06T08:56:08;20.20;1.00
8605;DHT22;4340;52.516;13.468;2022-07-06T08:58:34;20.20;1.00
8605;DHT22;4340;52.516;13.468;2022-07-06T09:01:01;20.00;1.00
8605;DHT22;4340;52.516;13.468;2022-07-06T09:03:29;19.90;1.00
8605;DHT22;4340;52.516;13.468;2022-07-06T09:05:59;19.90;1.00
8605;DHT22;4340;52.516;13.468;2022-07-06T09:08:27;20.00;1.00
8605;DHT22;4340;52.516;13.468;2022-07-06T09:10:57;20.20;1.00
8605;DHT22;4340;52.516;13.468;2022-07-06T09:13:23;20.10;1.00
8605;DHT22;4340;52.516;13.468;2022-07-06T09:15:50;20.20;1.00
8605;DHT22;4340;52.516;13.468;2022-07-06T09:18:16;20.20;1.00
8605;DHT22;4340;52.516;13.468;2022-07-06T09:20:44;20.10;1.00
8605;DHT22;4340;52.516;13.468;2022-07-06T09:23:15;20.30;1.00
8605;DHT22;4340;52.516;13.468;2022-07-06T09:25:42;20.50;1.00
8605;DHT22;4340;52.516;13.468;2022-07-06T09:28:13;20.50;1.00
8605;DHT22;4340;52.516;13.468;2022-07-06T09:30:40;20.50;1.00
8605;DHT22;4340;52.516;13.468;2022-07-06T09:33:08;20.60;1.00
8605;DHT22;4340;52.516;13.468;2022-07-06T09:35:36;20.70;1.00
8605;DHT22;4340;52.516;13.468;2022-07-06T09:38:07;20.70;1.00
8605;DHT22;4340;52.516;13.468;2022-07-06T09:40:36;20.60;1.00
8605;DHT22;4340;52.516;13.468;2022-07-06T09:43:14;20.50;1.00
8605;DHT22;4340;52.516;13.468;2022-07-06T09:45:43;20.40;1.00
8605;DHT22;4340;52.516;13.468;2022-07-06T09:48:11;20.20;1.00
8605;DHT22;4340;52.516;13.468;2022-07-06T09:50:42;20.10;1.00
8605;DHT22;4340;52.516;13.468;2022-07-06T09:53:11;20.20;1.00
8605;DHT22;4340;52.516;13.468;2022-07-06T09:55:38;20.20;1.00
8605;DHT22;4340;52.516;13.468;2022-07-06T09:58:08;20.20;1.00
8605;DHT22;4340;52.516;13.468;2022-07-06T10:00:35;20.30;1.00
8605;DHT22;4340;52.516;13.468;2022-07-06T10:03:02;20.50;1.00
8605;DHT22;4340;52.516;13.468;2022-07-06T10:05:29;20.50;1.00
8605;DHT22;4340;52.516;13.468;2022-07-06T10:07:57;20.50;1.00
8605;DHT22;4340;52.516;13.468;2022-07-06T10:10:27;20.60;1.00
8605;DHT22;4340;52.516;13.468;2022-07-06T10:12:55;20.70;1.00
8605;DHT22;4340;52.516;13.468;2022-07-06T10:15:22;20.60;1.00
8605;DHT22;4340;52.516;13.468;2022-07-06T10:17:51;20.50;1.00
8605;DHT22;4340;52.516;13.468;2022-07-06T10:20:19;20.40;1.00
8605;DHT22;4340;52.516;13.468;2022-07-06T10:22:47;20.40;1.00
8605;DHT22;4340;52.516;13.468;2022-07-06T10:25:15;20.40;1.00
8605;DHT22;4340;52.516;13.468;2022-07-06T10:27:46;20.50;1.00
8605;DHT22;4340;52.516;13.468;2022-07-06T10:30:13;20.30;1.00
8605;DHT22;4340;52.516;13.468;2022-07-06T10:32:43;20.50;1.00
8605;DHT22;4340;52.516;13.468;2022-07-06T10:35:10;20.50;1.00
8605;DHT22;4340;52.516;13.468;2022-07-06T10:37:37;20.50;1.00
8605;DHT22;4340;52.516;13.468;2022-07-06T10:40:05;20.50;1.00
8605;DHT22;4340;52.516;13.468;2022-07-06T10:42:56;20.60;1.00
8605;DHT22;4340;52.516;13.468;2022-07-06T10:48:21;20.70;1.00
8605;DHT22;4340;52.516;13.468;2022-07-06T10:50:50;20.80;1.00
8605;DHT22;4340;52.516;13.468;2022-07-06T10:53:19;20.60;1.00
8605;DHT22;4340;52.516;13.468;2022-07-06T10:55:47;20.70;1.00
8605;DHT22;4340;52.516;13.468;2022-07-06T10:58:34;20.70;1.00
8605;DHT22;4340;52.516;13.468;2022-07-06T11:01:01;20.60;1.00
8605;DHT22;4340;52.516;13.468;2022-07-06T11:03:41;20.70;1.00
8605;DHT22;4340;52.516;13.468;2022-07-06T11:06:11;20.70;1.00
8605;DHT22;4340;52.516;13.468;2022-07-06T11:08:47;20.70;1.00
8605;DHT22;4340;52.516;13.468;2022-07-06T11:11:15;20.90;1.00
8605;DHT22;4340;52.516;13.468;2022-07-06T11:13:48;21.00;1.00
8605;DHT22;4340;52.516;13.468;2022-07-06T11:16:15;21.00;1.00
8605;DHT22;4340;52.516;13.468;2022-07-06T11:18:46;21.00;1.00
8605;DHT22;4340;52.516;13.468;2022-07-06T11:21:15;20.90;1.00
8605;DHT22;4340;52.516;13.468;2022-07-06T11:23:42;21.00;1.00
8605;DHT22;4340;52.516;13.468;2022-07-06T11:26:10;21.30;1.00
8605;DHT22;4340;52.516;13.468;2022-07-06T11:28:37;21.30;1.00
8605;DHT22;4340;52.516;13.468;2022-07-06T11:31:05;21.20;1.00
8605;DHT22;4340;52.516;13.468;2022-07-06T11:33:32;21.10;1.00
8605;DHT22;4340;52.516;13.468;2022-07-06T11:36:13;21.00;1.00
8605;DHT22;4340;52.516;13.468;2022-07-06T11:38:39;20.90;1.00
8605;DHT22;4340;52.516;13.468;2022-07-06T11:41:06;20.80;1.00
8605;DHT22;4340;52.516;13.468;2022-07-06T11:43:33;20.80;1.00
8605;DHT22;4340;52.516;13.468;2022-07-06T11:45:59;21.00;1.00
8605;DHT22;4340;52.516;13.468;2022-07-06T11:48:27;20.90;1.00
8605;DHT22;4340;52.516;13.468;2022-07-06T11:50:58;21.00;1.00
8605;DHT22;4340;52.516;13.468;2022-07-06T11:53:24;20.90;1.00
8605;DHT22;4340;52.516;13.468;2022-07-06T11:55:51;21.10;1.00
8605;DHT22;4340;52.516;13.468;2022-07-06T11:58:21;21.20;1.00
8605;DHT22;4340;52.516;13.468;2022-07-06T12:01:03;21.20;1.00
8605;DHT22;4340;52.516;13.468;2022-07-06T12:03:31;21.00;1.00
8605;DHT22;4340;52.516;13.468;2022-07-06T12:05:58;21.00;1.00
8605;DHT22;4340;52.516;13.468;2022-07-06T12:08:24;21.00;1.00
8605;DHT22;4340;52.516;13.468;2022-07-06T12:10:51;21.10;1.00
8605;DHT22;4340;52.516;13.468;2022-07-06T12:13:18;21.00;1.00
8605;DHT22;4340;52.516;13.468;2022-07-06T12:15:45;21.20;1.00
8605;DHT22;4340;52.516;13.468;2022-07-06T12:18:11;21.20;1.00
8605;DHT22;4340;52.516;13.468;2022-07-06T12:20:40;21.20;1.00
8605;DHT22;4340;52.516;13.468;2022-07-06T12:23:07;21.20;1.00
8605;DHT22;4340;52.516;13.468;2022-07-06T12:25:35;21.20;1.00
8605;DHT22;4340;52.516;13.468;2022-07-06T12:28:02;21.20;1.00
8605;DHT22;4340;52.516;13.468;2022-07-06T12:30:29;21.30;1.00
8605;DHT22;4340;52.516;13.468;2022-07-06T12:33:13;21.20;1.00
8605;DHT22;4340;52.516;13.468;2022-07-06T12:35:42;21.00;1.00
8605;DHT22;4340;52.516;13.468;2022-07-06T12:38:09;21.00;1.00
8605;DHT22;4340;52.516;13.468;2022-07-06T12:40:36;21.00;1.00
8605;DHT22;4340;52.516;13.468;2022-07-06T12:43:03;21.10;1.00
8605;DHT22;4340;52.516;13.468;2022-07-06T12:45:31;21.30;1.00
8605;DHT22;4340;52.516;13.468;2022-07-06T12:47:59;21.50;1.00
8605;DHT22;4340;52.516;13.468;2022-07-06T12:50:33;21.50;1.00
8605;DHT22;4340;52.516;13.468;2022-07-06T12:53:03;21.50;1.00
8605;DHT22;4340;52.516;13.468;2022-07-06T12:55:30;21.50;1.00
8605;DHT22;4340;52.516;13.468;2022-07-06T12:57:58;21.40;1.00
8605;DHT22;4340;52.516;13.468;2022-07-06T13:00:25;21.40;1.00
8605;DHT22;4340;52.516;13.468;2022-07-06T13:02:53;21.50;1.00
8605;DHT22;4340;52.516;13.468;2022-07-06T13:05:25;21.40;1.00
8605;DHT22;4340;52.516;13.468;2022-07-06T13:07:54;21.50;1.00
8605;DHT22;4340;52.516;13.468;2022-07-06T13:10:23;21.60;1.00
8605;DHT22;4340;52.516;13.468;2022-07-06T13:12:50;21.60;1.00
8605;DHT22;4340;52.516;13.468;2022-07-06T13:15:17;21.70;1.00
8605;DHT22;4340;52.516;13.468;2022-07-06T13:17:44;21.60;1.00
8605;DHT22;4340;52.516;13.468;2022-07-06T13:20:12;21.50;1.00
8605;DHT22;4340;52.516;13.468;2022-07-06T13:22:39;21.50;1.00
8605;DHT22;4340;52.516;13.468;2022-07-06T13:25:07;21.60;1.00
8605;DHT22;4340;52.516;13.468;2022-07-06T13:27:35;21.50;1.00
8605;DHT22;4340;52.516;13.468;2022-07-06T13:30:02;21.60;1.00
8605;DHT22;4340;52.516;13.468;2022-07-06T13:32:29;21.60;1.00
8605;DHT22;4340;52.516;13.468;2022-07-06T13:34:55;21.50;1.00
8605;DHT22;4340;52.516;13.468;2022-07-06T13:37:22;21.50;1.00
8605;DHT22;4340;52.516;13.468;2022-07-06T13:39:49;21.70;1.00
8605;DHT22;4340;52.516;13.468;2022-07-06T13:42:15;21.80;1.00
8605;DHT22;4340;52.516;13.468;2022-07-06T13:44:43;21.80;1.00
8605;DHT22;4340;52.516;13.468;2022-07-06T13:47:10;21.80;1.00
8605;DHT22;4340;52.516;13.468;2022-07-06T13:49:36;21.70;1.00
8605;DHT22;4340;52.516;13.468;2022-07-06T13:52:04;21.70;1.00
8605;DHT22;4340;52.516;13.468;2022-07-06T13:54:31;21.90;1.00
8605;DHT22;4340;52.516;13.468;2022-07-06T13:57:02;22.00;1.00
8605;DHT22;4340;52.516;13.468;2022-07-06T13:59:29;21.90;1.00
8605;DHT22;4340;52.516;13.468;2022-07-06T14:01:57;21.90;1.00
8605;DHT22;4340;52.516;13.468;2022-07-06T14:04:23;22.00;1.00
8605;DHT22;4340;52.516;13.468;2022-07-06T14:06:50;21.90;1.00
8605;DHT22;4340;52.516;13.468;2022-07-06T14:09:17;21.90;1.00
8605;DHT22;4340;52.516;13.468;2022-07-06T14:11:43;21.70;1.00
8605;DHT22;4340;52.516;13.468;2022-07-06T14:14:10;21.80;1.00
8605;DHT22;4340;52.516;13.468;2022-07-06T14:16:36;21.90;1.00
8605;DHT22;4340;52.516;13.468;2022-07-06T14:19:07;21.80;1.00
8605;DHT22;4340;52.516;13.468;2022-07-06T14:21:33;21.70;1.00
8605;DHT22;4340;52.516;13.468;2022-07-06T14:24:00;21.70;1.00
8605;DHT22;4340;52.516;13.468;2022-07-06T14:26:26;21.70;1.00
8605;DHT22;4340;52.516;13.468;2022-07-06T14:28:53;21.70;1.00
8605;DHT22;4340;52.516;13.468;2022-07-06T14:31:20;21.80;1.00
8605;DHT22;4340;52.516;13.468;2022-07-06T14:33:46;21.80;1.00
8605;DHT22;4340;52.516;13.468;2022-07-06T14:36:14;21.80;1.00
8605;DHT22;4340;52.516;13.468;2022-07-06T14:38:41;21.90;1.00
8605;DHT22;4340;52.516;13.468;2022-07-06T14:41:07;22.00;1.00
8605;DHT22;4340;52.516;13.468;2022-07-06T14:43:34;21.90;1.00
8605;DHT22;4340;52.516;13.468;2022-07-06T14:46:01;21.70;1.00
8605;DHT22;4340;52.516;13.468;2022-07-06T14:48:28;21.70;1.00
8605;DHT22;4340;52.516;13.468;2022-07-06T14:50:55;21.80;1.00
8605;DHT22;4340;52.516;13.468;2022-07-06T14:53:24;21.70;1.00
8605;DHT22;4340;52.516;13.468;2022-07-06T14:55:51;21.60;1.00
8605;DHT22;4340;52.516;13.468;2022-07-06T14:58:18;21.60;1.00
8605;DHT22;4340;52.516;13.468;2022-07-06T15:00:44;21.50;1.00
8605;DHT22;4340;52.516;13.468;2022-07-06T15:03:11;21.40;1.00
8605;DHT22;4340;52.516;13.468;2022-07-06T15:05:38;21.30;1.00
8605;DHT22;4340;52.516;13.468;2022-07-06T15:08:05;21.10;1.00
8605;DHT22;4340;52.516;13.468;2022-07-06T15:10:33;21.10;1.00
8605;DHT22;4340;52.516;13.468;2022-07-06T15:12:59;21.00;1.00
8605;DHT22;4340;52.516;13.468;2022-07-06T15:15:26;21.00;1.00
8605;DHT22;4340;52.516;13.468;2022-07-06T15:17:53;20.90;1.00
8605;DHT22;4340;52.516;13.468;2022-07-06T15:20:19;20.90;1.00
8605;DHT22;4340;52.516;13.468;2022-07-06T15:22:47;20.80;1.00
8605;DHT22;4340;52.516;13.468;2022-07-06T15:25:14;20.90;1.00
8605;DHT22;4340;52.516;13.468;2022-07-06T15:27:42;20.90;1.00
8605;DHT22;4340;52.516;13.468;2022-07-06T15:30:09;20.70;1.00
8605;DHT22;4340;52.516;13.468;2022-07-06T15:32:36;20.70;1.00
8605;DHT22;4340;52.516;13.468;2022-07-06T15:35:03;20.70;1.00
8605;DHT22;4340;52.516;13.468;2022-07-06T15:37:31;20.50;1.00
8605;DHT22;4340;52.516;13.468;2022-07-06T15:39:58;20.50;1.00
8605;DHT22;4340;52.516;13.468;2022-07-06T15:42:24;20.50;1.00
8605;DHT22;4340;52.516;13.468;2022-07-06T15:44:52;20.40;1.00
8605;DHT22;4340;52.516;13.468;2022-07-06T15:47:19;20.40;1.00
8605;DHT22;4340;52.516;13.468;2022-07-06T15:49:48;20.30;1.00
8605;DHT22;4340;52.516;13.468;2022-07-06T15:52:15;20.40;1.00
8605;DHT22;4340;52.516;13.468;2022-07-06T15:54:42;20.40;1.00
8605;DHT22;4340;52.516;13.468;2022-07-06T15:57:09;20.50;1.00
8605;DHT22;4340;52.516;13.468;2022-07-06T15:59:35;20.50;1.00
8605;DHT22;4340;52.516;13.468;2022-07-06T16:02:04;20.60;1.00
8605;DHT22;4340;52.516;13.468;2022-07-06T16:04:30;20.60;1.00